Time;durP1;ratioP1;P1;durP2;ratioP2;P2;SDS_P1;SDS_P2;PMS_P1;PMS_P2;Temp;Humidity;BMP_temperature;BMP_pressure;BME280_temperature;BME280_humidity;BME280_pressure;Samples;Min_cycle;Max_cycle;Signal;HPM_P1;HPM_P2
2023/11/02 00:00:34;;;;;;;1.60;0.33;;;;;;;;;;5066400;28;20025;-57
2023/11/02 00:03:02;;;;;;;0.50;0.30;;;;;;;;;;5067192;28;20033;-58
2023/11/02 00:06:04;;;;;;;0.97;0.50;;;;;;;;;;5071851;28;20120;-57
2023/11/02 00:08:35;;;;;;;0.07;0.07;;;;;;;;;;5071475;28;20379;-58
2023/11/02 00:11:25;;;;;;;0.70;0.13;;;;;;;;;;5071477;28;20070;-58
2023/11/02 00:13:51;;;;;;;0.00;0.00;;;;;;;;;;5070659;28;20040;-58
2023/11/02 00:16:18;;;;;;;1.60;0.23;;;;;;;;;;5068629;28;20048;-58
2023/11/02 00:18:45;;;;;;;0.20;0.10;;;;;;;;;;5066296;28;20028;-57
2023/11/02 00:21:21;;;;;;;0.80;0.33;;;;;;;;;;5066188;28;20091;-58
2023/11/02 00:23:48;;;;;;;0.00;0.00;;;;;;;;;;5066198;28;20056;-58
2023/11/02 00:26:18;;;;;;;0.50;0.20;;;;;;;;;;5068813;28;20031;-58
2023/11/02 00:28:45;;;;;;;0.30;0.20;;;;;;;;;;5071486;28;20428;-58
2023/11/02 00:31:12;;;;;;;0.00;0.00;;;;;;;;;;5071629;28;20035;-58
2023/11/02 00:33:38;;;;;;;1.80;0.57;;;;;;;;;;5072378;28;20033;-58
2023/11/02 00:36:05;;;;;;;0.00;0.00;;;;;;;;;;5071571;28;20056;-58
2023/11/02 00:38:32;;;;;;;0.47;0.20;;;;;;;;;;5069472;28;20033;-58
2023/11/02 00:40:59;;;;;;;0.67;0.37;;;;;;;;;;5066136;28;20028;-58
2023/11/02 00:43:28;;;;;;;0.30;0.10;;;;;;;;;;5069417;28;20049;-58
2023/11/02 00:45:55;;;;;;;0.20;0.10;;;;;;;;;;5069040;28;20035;-58
2023/11/02 00:48:25;;;;;;;0.30;0.20;;;;;;;;;;5071565;28;20036;-57
2023/11/02 00:51:26;;;;;;;0.53;0.27;;;;;;;;;;5075038;28;20025;-57
2023/11/02 00:53:56;;;;;;;0.30;0.20;;;;;;;;;;5089910;28;20106;-57
2023/11/02 00:56:24;;;;;;;0.20;0.20;;;;;;;;;;5095227;28;20012;-57
2023/11/02 00:58:54;;;;;;;11.13;0.50;;;;;;;;;;5091511;28;20032;-58
2023/11/02 01:01:22;;;;;;;0.00;0.00;;;;;;;;;;5071248;28;20028;-57
2023/11/02 01:03:51;;;;;;;0.30;0.20;;;;;;;;;;5071419;28;20511;-59
2023/11/02 01:06:23;;;;;;;0.10;0.03;;;;;;;;;;5089532;28;20088;-58
2023/11/02 01:09:00;;;;;;;0.30;0.10;;;;;;;;;;5088931;28;20020;-58
2023/11/02 01:11:31;;;;;;;0.63;0.30;;;;;;;;;;5092657;28;20039;-57
2023/11/02 01:13:58;;;;;;;0.63;0.30;;;;;;;;;;5094565;28;20028;-57
2023/11/02 01:16:27;;;;;;;0.07;0.07;;;;;;;;;;5094235;28;20028;-58
2023/11/02 01:18:56;;;;;;;0.00;0.00;;;;;;;;;;5094719;28;20476;-58
2023/11/02 01:21:23;;;;;;;0.00;0.00;;;;;;;;;;5094400;28;20474;-58
2023/11/02 01:23:59;;;;;;;0.13;0.10;;;;;;;;;;5078935;28;20028;-58
2023/11/02 01:27:01;;;;;;;0.00;0.00;;;;;;;;;;5068960;28;20104;-58
2023/11/02 01:29:29;;;;;;;0.40;0.33;;;;;;;;;;4986617;28;20027;-58
2023/11/02 01:31:57;;;;;;;0.83;0.47;;;;;;;;;;5053351;28;20083;-57
2023/11/02 01:34:24;;;;;;;0.60;0.47;;;;;;;;;;5073172;28;20120;-58
2023/11/02 01:36:54;;;;;;;1.80;0.57;;;;;;;;;;5073881;28;20072;-57
2023/11/02 01:39:21;;;;;;;4.17;0.40;;;;;;;;;;5089399;28;20097;-57
2023/11/02 01:42:03;;;;;;;0.10;0.10;;;;;;;;;;5094360;28;20052;-58
2023/11/02 01:44:52;;;;;;;0.20;0.10;;;;;;;;;;5094138;28;20547;-57
2023/11/02 01:47:37;;;;;;;0.53;0.20;;;;;;;;;;5088858;28;20035;-57
2023/11/02 01:50:22;;;;;;;9.02;0.25;;;;;;;;;;5086727;28;20028;-57
2023/11/02 01:52:48;;;;;;;;;;;;;;;;;;5068698;28;20028;-58
2023/11/02 01:55:33;;;;;;;0.33;0.20;;;;;;;;;;5069193;28;19912;-57
2023/11/02 01:58:03;;;;;;;0.10;0.10;;;;;;;;;;5073631;28;20040;-57
2023/11/02 02:00:36;;;;;;;2.47;0.40;;;;;;;;;;5073610;28;20035;-58
2023/11/02 02:03:26;;;;;;;0.43;0.33;;;;;;;;;;5073664;28;20028;-57
2023/11/02 02:05:56;;;;;;;0.10;0.10;;;;;;;;;;5073414;28;20033;-58
2023/11/02 02:08:32;;;;;;;0.00;0.00;;;;;;;;;;5070177;28;20029;-57
2023/11/02 02:11:15;;;;;;;0.10;0.10;;;;;;;;;;5068239;28;20025;-57
2023/11/02 02:13:56;;;;;;;0.63;0.27;;;;;;;;;;5068027;28;20090;-58
2023/11/02 02:16:32;;;;;;;0.57;0.20;;;;;;;;;;5082478;28;20027;-57
2023/11/02 02:19:12;;;;;;;0.67;0.23;;;;;;;;;;5091911;28;20032;-57
2023/11/02 02:21:51;;;;;;;0.20;0.13;;;;;;;;;;5093606;28;20028;-58
2023/11/02 02:24:23;;;;;;;0.37;0.10;;;;;;;;;;5093525;28;20432;-57
2023/11/02 02:27:03;;;;;;;0.30;0.20;;;;;;;;;;5093182;28;20020;-58
2023/11/02 02:29:45;;;;;;;0.10;0.10;;;;;;;;;;5075874;28;20111;-57
2023/11/02 02:32:30;;;;;;;0.00;0.00;;;;;;;;;;5067745;28;20028;-57
2023/11/02 02:34:57;;;;;;;0.20;0.10;;;;;;;;;;5068039;28;20126;-57
2023/11/02 02:37:27;;;;;;;0.00;0.00;;;;;;;;;;5067826;28;20055;-57
2023/11/02 02:39:57;;;;;;;0.00;0.00;;;;;;;;;;5068204;28;20468;-57
2023/11/02 02:42:24;;;;;;;0.00;0.00;;;;;;;;;;5072754;28;20509;-57
2023/11/02 02:44:52;;;;;;;0.47;0.10;;;;;;;;;;5072775;28;20020;-57
2023/11/02 02:47:22;;;;;;;0.00;0.00;;;;;;;;;;5072379;28;20021;-58
2023/11/02 02:49:51;;;;;;;0.00;0.00;;;;;;;;;;5072772;28;20033;-57
2023/11/02 02:52:24;;;;;;;1.00;0.20;;;;;;;;;;5075541;28;20488;-58
2023/11/02 02:54:53;;;;;;;0.17;0.10;;;;;;;;;;5066908;28;20038;-57
2023/11/02 02:57:21;;;;;;;0.00;0.00;;;;;;;;;;5067349;28;20037;-57
2023/11/02 02:59:52;;;;;;;0.40;0.10;;;;;;;;;;5067570;28;20028;-57
2023/11/02 03:02:22;;;;;;;0.00;0.00;;;;;;;;;;5067552;28;20084;-57
2023/11/02 03:04:50;;;;;;;1.20;0.20;;;;;;;;;;5071710;28;20082;-57
2023/11/02 03:07:17;;;;;;;0.00;0.00;;;;;;;;;;5072410;28;20028;-57
2023/11/02 03:09:45;;;;;;;0.00;0.00;;;;;;;;;;5072291;28;20033;-57
2023/11/02 03:12:13;;;;;;;0.00;0.00;;;;;;;;;;5072377;28;20104;-57
2023/11/02 03:14:42;;;;;;;0.50;0.20;;;;;;;;;;5071171;28;20031;-58
2023/11/02 03:17:13;;;;;;;0.00;0.00;;;;;;;;;;5066504;28;20059;-57
2023/11/02 03:19:50;;;;;;;0.00;0.00;;;;;;;;;;5066917;28;20081;-57
2023/11/02 03:22:20;;;;;;;0.00;0.00;;;;;;;;;;5077203;28;20462;-58
2023/11/02 03:25:07;;;;;;;0.00;0.00;;;;;;;;;;5087898;28;20077;-58
2023/11/02 03:27:37;;;;;;;0.00;0.00;;;;;;;;;;5092447;28;20030;-57
2023/11/02 03:30:09;;;;;;;0.00;0.00;;;;;;;;;;5092445;28;20038;-57
2023/11/02 03:32:48;;;;;;;16.87;0.60;;;;;;;;;;5074588;28;20028;-57
2023/11/02 03:35:17;;;;;;;0.10;0.10;;;;;;;;;;5092453;28;20095;-57
2023/11/02 03:38:10;;;;;;;0.10;0.00;;;;;;;;;;5073154;28;20036;-57
2023/11/02 03:40:36;;;;;;;0.00;0.00;;;;;;;;;;5036078;28;20510;-57
2023/11/02 03:43:06;;;;;;;0.00;0.00;;;;;;;;;;5066611;28;20021;-57
2023/11/02 03:45:56;;;;;;;0.00;0.00;;;;;;;;;;5066826;28;20103;-58
2023/11/02 03:48:44;;;;;;;0.27;0.10;;;;;;;;;;5032599;28;20029;-57
2023/11/02 03:51:29;;;;;;;0.00;0.00;;;;;;;;;;5071655;28;20031;-57
2023/11/02 03:54:15;;;;;;;0.00;0.00;;;;;;;;;;5071549;28;20029;-57
2023/11/02 03:56:41;;;;;;;;;;;;;;;;;;5072184;28;20394;-57
2023/11/02 03:59:18;;;;;;;0.00;0.00;;;;;;;;;;5071628;28;20369;-57
2023/11/02 04:01:57;;;;;;;2.30;0.10;;;;;;;;;;5066453;28;20032;-57
2023/11/02 04:04:49;;;;;;;0.00;0.00;;;;;;;;;;5066683;28;20376;-57
2023/11/02 04:07:31;;;;;;;0.00;0.00;;;;;;;;;;5066439;28;20040;-57
2023/11/02 04:10:06;;;;;;;0.00;0.00;;;;;;;;;;5067693;28;20430;-57
2023/11/02 04:12:53;;;;;;;0.00;0.00;;;;;;;;;;5071559;28;20100;-57
2023/11/02 04:15:20;;;;;;;0.17;0.10;;;;;;;;;;5071697;28;20487;-57
2023/11/02 04:17:47;;;;;;;0.00;0.00;;;;;;;;;;5075645;28;20564;-57
2023/11/02 04:20:14;;;;;;;0.20;0.10;;;;;;;;;;5075250;28;20033;-57
2023/11/02 04:22:41;;;;;;;0.10;0.00;;;;;;;;;;5072632;28;20035;-57
2023/11/02 04:25:08;;;;;;;0.00;0.00;;;;;;;;;;5071449;28;20048;-57
2023/11/02 04:27:35;;;;;;;0.27;0.10;;;;;;;;;;5069964;28;20503;-58
2023/11/02 04:30:02;;;;;;;0.00;0.00;;;;;;;;;;5070246;28;20028;-57
2023/11/02 04:32:29;;;;;;;0.00;0.00;;;;;;;;;;5076273;28;20035;-57
2023/11/02 04:34:56;;;;;;;0.20;0.10;;;;;;;;;;5095689;28;20379;-57
2023/11/02 04:37:23;;;;;;;2.00;0.10;;;;;;;;;;5095025;28;20107;-57
2023/11/02 04:39:49;;;;;;;0.00;0.00;;;;;;;;;;5095369;28;20036;-57
2023/11/02 04:42:21;;;;;;;0.00;0.00;;;;;;;;;;5093728;28;20719;-57
2023/11/02 04:44:48;;;;;;;0.00;0.00;;;;;;;;;;5093160;28;20032;-58
2023/11/02 04:47:14;;;;;;;0.00;0.00;;;;;;;;;;5090271;28;20078;-57
2023/11/02 04:49:41;;;;;;;0.00;0.00;;;;;;;;;;5090144;28;20020;-57
2023/11/02 04:52:08;;;;;;;0.03;0.00;;;;;;;;;;5089766;28;20028;-58
2023/11/02 04:54:35;;;;;;;0.00;0.00;;;;;;;;;;5090688;28;20113;-57
2023/11/02 04:57:02;;;;;;;0.10;0.10;;;;;;;;;;5091203;28;20032;-57
2023/11/02 04:59:31;;;;;;;0.20;0.20;;;;;;;;;;5074839;28;20104;-57
2023/11/02 05:01:58;;;;;;;0.33;0.20;;;;;;;;;;5086076;28;20479;-57
2023/11/02 05:04:24;;;;;;;0.00;0.00;;;;;;;;;;5074877;28;20024;-57
2023/11/02 05:06:51;;;;;;;0.40;0.20;;;;;;;;;;5073391;28;20096;-57
2023/11/02 05:09:18;;;;;;;0.00;0.00;;;;;;;;;;5069225;28;20035;-57
2023/11/02 05:11:46;;;;;;;0.00;0.00;;;;;;;;;;5069098;28;20049;-57
2023/11/02 05:14:13;;;;;;;0.00;0.00;;;;;;;;;;5069291;28;20037;-57
2023/11/02 05:16:39;;;;;;;0.50;0.10;;;;;;;;;;5086188;28;20390;-57
2023/11/02 05:19:06;;;;;;;1.80;0.30;;;;;;;;;;5094521;28;20025;-57
2023/11/02 05:21:33;;;;;;;1.17;0.20;;;;;;;;;;5094749;28;20016;-57
2023/11/02 05:23:59;;;;;;;0.27;0.10;;;;;;;;;;5094470;28;20031;-57
2023/11/02 05:26:26;;;;;;;0.00;0.00;;;;;;;;;;5086794;28;20024;-57
2023/11/02 05:28:53;;;;;;;0.10;0.10;;;;;;;;;;5073144;28;20021;-57
2023/11/02 05:31:20;;;;;;;0.10;0.00;;;;;;;;;;5077120;28;20023;-57
2023/11/02 05:33:46;;;;;;;0.00;0.00;;;;;;;;;;5089082;28;20057;-57
2023/11/02 05:36:13;;;;;;;0.30;0.20;;;;;;;;;;5089051;28;20091;-57
2023/11/02 05:38:40;;;;;;;1.27;0.33;;;;;;;;;;5088985;28;20055;-57
2023/11/02 05:41:07;;;;;;;0.83;0.30;;;;;;;;;;5091755;28;20475;-57
2023/11/02 05:43:34;;;;;;;0.53;0.27;;;;;;;;;;5074717;28;20514;-57
2023/11/02 05:46:01;;;;;;;0.10;0.10;;;;;;;;;;5080126;28;20136;-57
2023/11/02 05:48:27;;;;;;;0.13;0.13;;;;;;;;;;5074502;28;20449;-58
2023/11/02 05:50:54;;;;;;;0.57;0.33;;;;;;;;;;5075952;28;20028;-57
2023/11/02 05:53:21;;;;;;;0.00;0.00;;;;;;;;;;5088580;28;20024;-57
2023/11/02 05:55:47;;;;;;;0.33;0.20;;;;;;;;;;5089127;28;20035;-57
2023/11/02 05:58:14;;;;;;;0.23;0.20;;;;;;;;;;5085913;28;20097;-57
2023/11/02 06:00:40;;;;;;;0.20;0.10;;;;;;;;;;5068567;28;20082;-57
2023/11/02 06:03:07;;;;;;;0.10;0.10;;;;;;;;;;5072277;28;20479;-57
2023/11/02 06:05:34;;;;;;;0.10;0.10;;;;;;;;;;5073182;28;20440;-57
2023/11/02 06:08:01;;;;;;;0.00;0.00;;;;;;;;;;5073511;28;20032;-57
2023/11/02 06:10:28;;;;;;;0.00;0.00;;;;;;;;;;5089032;28;20359;-57
2023/11/02 06:12:54;;;;;;;0.00;0.00;;;;;;;;;;5082639;28;20037;-56
2023/11/02 06:15:21;;;;;;;0.00;0.00;;;;;;;;;;5069500;28;20686;-57
2023/11/02 06:17:48;;;;;;;0.00;0.00;;;;;;;;;;5068080;28;20500;-57
2023/11/02 06:20:14;;;;;;;0.00;0.00;;;;;;;;;;5068156;28;20052;-57
2023/11/02 06:22:41;;;;;;;0.00;0.00;;;;;;;;;;5078255;28;20035;-57
2023/11/02 06:25:08;;;;;;;0.00;0.00;;;;;;;;;;5089517;28;20356;-57
2023/11/02 06:27:35;;;;;;;0.67;0.20;;;;;;;;;;5093419;28;20074;-57
2023/11/02 06:30:01;;;;;;;0.17;0.10;;;;;;;;;;5093558;28;20379;-57
2023/11/02 06:32:28;;;;;;;0.10;0.10;;;;;;;;;;5093166;28;20027;-57
2023/11/02 06:34:55;;;;;;;0.00;0.00;;;;;;;;;;5093389;28;20043;-57
2023/11/02 06:37:21;;;;;;;0.00;0.00;;;;;;;;;;5082914;28;20033;-57
2023/11/02 06:39:48;;;;;;;0.00;0.00;;;;;;;;;;5066385;28;20446;-57
2023/11/02 06:42:15;;;;;;;0.20;0.10;;;;;;;;;;5061373;28;20817;-57
2023/11/02 06:44:43;;;;;;;0.00;0.00;;;;;;;;;;5048026;28;20072;-57
2023/11/02 06:47:11;;;;;;;2.43;0.10;;;;;;;;;;5055684;28;20104;-57
2023/11/02 06:49:37;;;;;;;0.00;0.00;;;;;;;;;;5072703;28;20098;-57
2023/11/02 06:52:05;;;;;;;0.00;0.00;;;;;;;;;;5090755;28;20498;-57
2023/11/02 06:54:32;;;;;;;0.00;0.00;;;;;;;;;;5092882;28;20039;-57
2023/11/02 06:56:59;;;;;;;0.47;0.13;;;;;;;;;;5092380;28;20024;-57
2023/11/02 06:59:25;;;;;;;0.00;0.00;;;;;;;;;;5083440;28;20017;-57
2023/11/02 07:01:53;;;;;;;0.00;0.00;;;;;;;;;;5068274;28;20059;-57
2023/11/02 07:04:20;;;;;;;0.00;0.00;;;;;;;;;;5067324;28;20078;-57
2023/11/02 07:06:47;;;;;;;0.00;0.00;;;;;;;;;;5066994;28;20108;-57
2023/11/02 07:09:14;;;;;;;0.00;0.00;;;;;;;;;;5068807;28;20102;-57
2023/11/02 07:11:40;;;;;;;0.00;0.00;;;;;;;;;;5072490;28;20056;-57
2023/11/02 07:14:07;;;;;;;0.00;0.00;;;;;;;;;;5072171;28;20077;-57
2023/11/02 07:16:34;;;;;;;0.00;0.00;;;;;;;;;;5072412;28;20414;-57
2023/11/02 07:19:01;;;;;;;0.43;0.10;;;;;;;;;;5072071;28;20089;-57
2023/11/02 07:21:27;;;;;;;0.00;0.00;;;;;;;;;;5070392;28;20098;-57
2023/11/02 07:23:54;;;;;;;0.60;0.10;;;;;;;;;;5067169;28;20068;-57
2023/11/02 07:26:21;;;;;;;0.00;0.00;;;;;;;;;;5076945;28;20016;-56
2023/11/02 07:28:48;;;;;;;0.00;0.00;;;;;;;;;;5087353;28;20802;-57
2023/11/02 07:31:14;;;;;;;0.00;0.00;;;;;;;;;;5087981;28;20024;-57
2023/11/02 07:33:41;;;;;;;0.00;0.00;;;;;;;;;;5092396;28;20093;-57
2023/11/02 07:36:09;;;;;;;0.00;0.00;;;;;;;;;;5092007;28;20024;-57
2023/11/02 07:38:36;;;;;;;1.80;0.13;;;;;;;;;;5091712;28;20037;-57
2023/11/02 07:41:02;;;;;;;0.00;0.00;;;;;;;;;;5072206;28;20463;-57
2023/11/02 07:43:29;;;;;;;0.00;0.00;;;;;;;;;;5071123;28;20021;-56
2023/11/02 07:45:55;;;;;;;0.00;0.00;;;;;;;;;;5066596;28;20021;-57
2023/11/02 07:48:22;;;;;;;0.00;0.00;;;;;;;;;;5066426;28;20028;-57
2023/11/02 07:50:49;;;;;;;0.00;0.00;;;;;;;;;;5063994;28;20021;-57
2023/11/02 07:53:15;;;;;;;0.00;0.00;;;;;;;;;;5085967;28;20032;-57
2023/11/02 07:55:43;;;;;;;0.00;0.00;;;;;;;;;;5092371;28;20505;-57
2023/11/02 07:58:10;;;;;;;0.13;0.07;;;;;;;;;;5092020;28;20031;-57
2023/11/02 08:00:37;;;;;;;0.00;0.00;;;;;;;;;;5091821;28;20035;-57
2023/11/02 08:03:04;;;;;;;0.00;0.00;;;;;;;;;;5092019;28;20016;-57
2023/11/02 08:05:31;;;;;;;0.00;0.00;;;;;;;;;;5091153;28;20027;-57
2023/11/02 08:07:57;;;;;;;0.20;0.10;;;;;;;;;;5046449;28;20056;-56
2023/11/02 08:10:24;;;;;;;0.00;0.00;;;;;;;;;;5046307;28;20463;-57
2023/11/02 08:12:51;;;;;;;0.00;0.00;;;;;;;;;;5046542;28;20373;-57
2023/11/02 08:15:18;;;;;;;0.00;0.00;;;;;;;;;;5046412;28;20507;-56
2023/11/02 08:17:44;;;;;;;0.00;0.00;;;;;;;;;;5071707;28;20028;-57
2023/11/02 08:20:11;;;;;;;0.00;0.00;;;;;;;;;;5091726;28;20028;-57
2023/11/02 08:22:38;;;;;;;6.03;0.17;;;;;;;;;;5091618;28;20150;-57
2023/11/02 08:25:05;;;;;;;0.00;0.00;;;;;;;;;;5091906;28;20467;-57
2023/11/02 08:27:35;;;;;;;0.00;0.00;;;;;;;;;;5077540;28;20031;-57
2023/11/02 08:30:02;;;;;;;0.20;0.00;;;;;;;;;;5066553;28;20040;-57
2023/11/02 08:32:29;;;;;;;0.20;0.07;;;;;;;;;;5066283;28;20031;-57
2023/11/02 08:34:56;;;;;;;0.00;0.00;;;;;;;;;;5066427;28;20021;-56
2023/11/02 08:37:24;;;;;;;0.00;0.00;;;;;;;;;;5065890;28;20036;-57
2023/11/02 08:39:50;;;;;;;0.00;0.00;;;;;;;;;;5081585;28;20039;-57
2023/11/02 08:42:17;;;;;;;0.10;0.03;;;;;;;;;;5091706;28;20038;-57
2023/11/02 08:44:44;;;;;;;3.30;0.10;;;;;;;;;;5091349;28;20024;-56
2023/11/02 08:47:10;;;;;;;3.40;0.20;;;;;;;;;;5091719;28;20077;-57
2023/11/02 08:49:38;;;;;;;0.00;0.00;;;;;;;;;;5091969;28;20357;-57
2023/11/02 08:52:05;;;;;;;0.00;0.00;;;;;;;;;;5074062;28;20468;-57
2023/11/02 08:54:32;;;;;;;0.00;0.00;;;;;;;;;;5066061;28;20429;-57
2023/11/02 08:56:58;;;;;;;0.00;0.00;;;;;;;;;;5065492;28;20100;-57
2023/11/02 08:59:25;;;;;;;0.53;0.43;;;;;;;;;;5066075;28;20024;-57
2023/11/02 09:01:51;;;;;;;0.00;0.00;;;;;;;;;;5069347;28;20024;-57
2023/11/02 09:04:19;;;;;;;0.00;0.00;;;;;;;;;;5089654;28;20102;-56
2023/11/02 09:06:46;;;;;;;0.00;0.00;;;;;;;;;;5084651;28;20063;-57
2023/11/02 09:09:12;;;;;;;0.00;0.00;;;;;;;;;;5074132;28;20391;-57
2023/11/02 09:11:39;;;;;;;0.47;0.10;;;;;;;;;;5074765;28;20103;-57
2023/11/02 09:14:06;;;;;;;0.00;0.00;;;;;;;;;;5070561;28;20046;-56
2023/11/02 09:16:32;;;;;;;0.00;0.00;;;;;;;;;;5069379;28;20105;-57
2023/11/02 09:18:59;;;;;;;0.00;0.00;;;;;;;;;;5069041;28;20033;-57
2023/11/02 09:21:27;;;;;;;0.00;0.00;;;;;;;;;;5071404;28;20086;-57
2023/11/02 09:23:54;;;;;;;0.00;0.00;;;;;;;;;;5092274;28;20099;-57
2023/11/02 09:26:20;;;;;;;0.00;0.00;;;;;;;;;;5094751;28;20105;-57
2023/11/02 09:28:50;;;;;;;0.00;0.00;;;;;;;;;;5094671;28;20020;-57
2023/11/02 09:31:17;;;;;;;0.00;0.00;;;;;;;;;;5094194;28;20540;-57
2023/11/02 09:33:44;;;;;;;0.00;0.00;;;;;;;;;;5094613;28;20027;-57
2023/11/02 09:36:11;;;;;;;0.00;0.00;;;;;;;;;;5090987;28;20058;-57
2023/11/02 09:38:37;;;;;;;0.87;0.10;;;;;;;;;;5089103;28;20032;-57
2023/11/02 09:41:04;;;;;;;0.00;0.00;;;;;;;;;;5089264;28;20435;-57
2023/11/02 09:43:32;;;;;;;0.00;0.00;;;;;;;;;;5088922;28;20034;-57
2023/11/02 09:45:59;;;;;;;0.00;0.00;;;;;;;;;;5082915;28;20102;-56
2023/11/02 09:48:25;;;;;;;0.00;0.00;;;;;;;;;;5073640;28;20071;-57
2023/11/02 09:50:52;;;;;;;0.00;0.00;;;;;;;;;;5073854;28;20029;-57
2023/11/02 09:53:19;;;;;;;0.00;0.00;;;;;;;;;;5073713;28;20069;-57
2023/11/02 09:55:46;;;;;;;0.23;0.10;;;;;;;;;;5091091;28;20032;-56
2023/11/02 09:58:17;;;;;;;0.10;0.10;;;;;;;;;;5091768;28;20028;-57
2023/11/02 10:00:44;;;;;;;0.00;0.00;;;;;;;;;;5088686;28;20412;-57
2023/11/02 10:03:10;;;;;;;0.00;0.00;;;;;;;;;;5088342;28;20046;-57
2023/11/02 10:05:37;;;;;;;0.10;0.03;;;;;;;;;;5088594;28;20413;-57
2023/11/02 10:08:04;;;;;;;0.30;0.10;;;;;;;;;;5088336;28;20032;-56
2023/11/02 10:10:34;;;;;;;0.00;0.00;;;;;;;;;;5073498;28;20097;-57
2023/11/02 10:13:01;;;;;;;0.00;0.00;;;;;;;;;;5081223;28;20024;-56
2023/11/02 10:15:29;;;;;;;0.10;0.10;;;;;;;;;;5093536;28;20024;-57
2023/11/02 10:17:56;;;;;;;0.00;0.00;;;;;;;;;;5093625;28;20514;-57
2023/11/02 10:20:23;;;;;;;0.00;0.00;;;;;;;;;;5070938;28;20495;-56
2023/11/02 10:23:00;;;;;;;0.00;0.00;;;;;;;;;;5068243;28;20029;-56
2023/11/02 10:25:28;;;;;;;0.00;0.00;;;;;;;;;;5067837;28;20475;-57
2023/11/02 10:27:56;;;;;;;0.00;0.00;;;;;;;;;;5084650;28;20109;-57
2023/11/02 10:30:23;;;;;;;0.00;0.00;;;;;;;;;;5089980;28;20030;-56
2023/11/02 10:32:50;;;;;;;0.00;0.00;;;;;;;;;;5092991;28;20063;-57
2023/11/02 10:35:17;;;;;;;0.00;0.00;;;;;;;;;;5093188;28;20024;-57
2023/11/02 10:37:44;;;;;;;0.00;0.00;;;;;;;;;;5078965;28;20075;-56
2023/11/02 10:40:11;;;;;;;0.00;0.00;;;;;;;;;;5072986;28;20446;-57
2023/11/02 10:42:41;;;;;;;0.20;0.10;;;;;;;;;;5083922;28;20028;-57
2023/11/02 10:45:10;;;;;;;0.03;0.03;;;;;;;;;;5067607;28;20035;-57
2023/11/02 10:47:40;;;;;;;0.00;0.00;;;;;;;;;;5047459;28;20037;-57
2023/11/02 10:50:08;;;;;;;0.00;0.00;;;;;;;;;;5057386;28;20060;-57
2023/11/02 10:52:45;;;;;;;0.00;0.00;;;;;;;;;;5078365;28;20392;-57
2023/11/02 10:55:28;;;;;;;0.10;0.10;;;;;;;;;;5092776;28;20068;-57
2023/11/02 10:57:56;;;;;;;0.00;0.00;;;;;;;;;;5092522;28;20024;-57
2023/11/02 11:00:22;;;;;;;0.00;0.00;;;;;;;;;;5092937;28;20475;-56
2023/11/02 11:02:50;;;;;;;0.00;0.00;;;;;;;;;;5092736;28;20458;-57
2023/11/02 11:05:19;;;;;;;0.00;0.00;;;;;;;;;;5090074;28;20013;-56
2023/11/02 11:07:51;;;;;;;0.00;0.00;;;;;;;;;;5087479;28;20770;-57
2023/11/02 11:10:19;;;;;;;0.20;0.10;;;;;;;;;;5085499;28;20540;-56
2023/11/02 11:12:45;;;;;;;0.00;0.00;;;;;;;;;;5066944;28;20075;-57
2023/11/02 11:15:13;;;;;;;0.00;0.00;;;;;;;;;;5069442;28;20352;-56
2023/11/02 11:17:44;;;;;;;0.00;0.00;;;;;;;;;;5072254;28;20487;-57
2023/11/02 11:20:18;;;;;;;0.00;0.00;;;;;;;;;;5071980;28;20028;-56
2023/11/02 11:22:45;;;;;;;0.00;0.00;;;;;;;;;;5072454;28;20024;-57
2023/11/02 11:25:13;;;;;;;0.00;0.00;;;;;;;;;;5071604;28;20025;-57
2023/11/02 11:27:40;;;;;;;0.00;0.00;;;;;;;;;;5069008;28;20566;-57
2023/11/02 11:30:22;;;;;;;0.00;0.00;;;;;;;;;;5066960;28;20100;-57
2023/11/02 11:32:52;;;;;;;0.00;0.00;;;;;;;;;;5066974;28;20836;-56
2023/11/02 11:35:19;;;;;;;0.00;0.00;;;;;;;;;;5076890;28;20040;-57
2023/11/02 11:37:50;;;;;;;0.00;0.00;;;;;;;;;;5089550;28;20475;-56
2023/11/02 11:40:44;;;;;;;0.00;0.00;;;;;;;;;;5092143;28;20016;-57
2023/11/02 11:45:38;;;;;;;16.97;0.30;;;;;;;;;;5091701;28;20031;-57
2023/11/02 11:48:12;;;;;;;0.00;0.00;;;;;;;;;;5092203;28;20042;-56
2023/11/02 11:50:40;;;;;;;0.00;0.00;;;;;;;;;;5087681;28;20111;-56
2023/11/02 11:53:11;;;;;;;0.00;0.00;;;;;;;;;;5086307;28;20425;-57
2023/11/02 11:55:38;;;;;;;0.00;0.00;;;;;;;;;;5086716;28;20064;-58
2023/11/02 11:58:08;;;;;;;0.00;0.00;;;;;;;;;;5086752;28;20106;-56
2023/11/02 12:00:55;;;;;;;0.00;0.00;;;;;;;;;;5074102;28;20025;-57
2023/11/02 12:03:37;;;;;;;0.00;0.00;;;;;;;;;;5071560;28;20492;-56
2023/11/02 12:06:05;;;;;;;0.00;0.00;;;;;;;;;;5071685;28;20020;-57
2023/11/02 12:08:32;;;;;;;0.00;0.00;;;;;;;;;;5071831;28;20048;-57
2023/11/02 12:11:00;;;;;;;0.00;0.00;;;;;;;;;;5071348;28;20103;-57
2023/11/02 12:13:27;;;;;;;0.00;0.00;;;;;;;;;;5066712;28;20103;-57
2023/11/02 12:15:56;;;;;;;0.20;0.10;;;;;;;;;;5086561;28;20016;-57
2023/11/02 12:18:29;;;;;;;0.50;0.13;;;;;;;;;;5077266;28;20064;-56
2023/11/02 12:20:57;;;;;;;0.30;0.20;;;;;;;;;;5066156;28;20025;-56
2023/11/02 12:23:37;;;;;;;0.77;0.43;;;;;;;;;;5071425;28;20029;-57
2023/11/02 12:26:04;;;;;;;0.00;0.00;;;;;;;;;;5071772;28;20025;-57
2023/11/02 12:28:40;;;;;;;4.43;0.30;;;;;;;;;;5087390;28;20060;-57
2023/11/02 12:31:08;;;;;;;0.30;0.17;;;;;;;;;;5091664;28;20028;-57
2023/11/02 12:33:35;;;;;;;0.00;0.00;;;;;;;;;;5090606;28;20111;-57
2023/11/02 12:36:02;;;;;;;0.00;0.00;;;;;;;;;;5086401;28;20020;-56
2023/11/02 12:38:36;;;;;;;0.00;0.00;;;;;;;;;;5089777;28;20491;-56
2023/11/02 12:41:04;;;;;;;0.00;0.00;;;;;;;;;;5072011;28;20024;-57
2023/11/02 12:43:36;;;;;;;0.10;0.10;;;;;;;;;;5071457;28;20556;-56
2023/11/02 12:46:08;;;;;;;0.00;0.00;;;;;;;;;;5074836;28;20487;-56
2023/11/02 12:48:39;;;;;;;0.00;0.00;;;;;;;;;;5087584;28;20063;-57
2023/11/02 12:51:20;;;;;;;0.00;0.00;;;;;;;;;;5095365;28;20073;-56
2023/11/02 12:53:47;;;;;;;0.10;0.00;;;;;;;;;;5095225;28;20093;-57
2023/11/02 12:56:26;;;;;;;0.00;0.00;;;;;;;;;;5093396;28;20047;-56
2023/11/02 12:59:00;;;;;;;0.00;0.00;;;;;;;;;;5089830;28;20493;-56
2023/11/02 13:01:47;;;;;;;0.00;0.00;;;;;;;;;;5089743;28;20031;-56
2023/11/02 13:04:18;;;;;;;0.00;0.00;;;;;;;;;;5089805;28;20055;-57
2023/11/02 13:06:44;;;;;;;0.07;0.07;;;;;;;;;;5092058;28;20036;-57
2023/11/02 13:09:12;;;;;;;0.43;0.30;;;;;;;;;;5094629;28;20101;-56
2023/11/02 13:11:45;;;;;;;0.07;0.03;;;;;;;;;;5093055;28;20364;-56
2023/11/02 13:14:12;;;;;;;0.00;0.00;;;;;;;;;;5094782;28;20052;-57
2023/11/02 13:16:40;;;;;;;0.00;0.00;;;;;;;;;;5094806;28;20482;-56
2023/11/02 13:19:07;;;;;;;0.00;0.00;;;;;;;;;;5091824;28;20024;-57
2023/11/02 13:21:34;;;;;;;0.00;0.00;;;;;;;;;;5089540;28;20383;-56
2023/11/02 13:24:01;;;;;;;0.00;0.00;;;;;;;;;;5088920;28;20027;-56
2023/11/02 13:26:27;;;;;;;0.00;0.00;;;;;;;;;;5089196;28;20371;-57
2023/11/02 13:28:54;;;;;;;0.00;0.00;;;;;;;;;;5091358;28;20081;-56
2023/11/02 13:31:21;;;;;;;0.00;0.00;;;;;;;;;;5083985;28;20111;-56
2023/11/02 13:33:48;;;;;;;0.30;0.07;;;;;;;;;;5074320;28;20123;-56
2023/11/02 13:36:14;;;;;;;0.00;0.00;;;;;;;;;;5073974;28;20028;-56
2023/11/02 13:38:44;;;;;;;0.10;0.10;;;;;;;;;;5074341;28;20040;-56
2023/11/02 13:41:11;;;;;;;0.00;0.00;;;;;;;;;;5071547;28;20029;-57
2023/11/02 13:43:38;;;;;;;0.10;0.10;;;;;;;;;;5068835;28;20029;-56
2023/11/02 13:46:05;;;;;;;0.10;0.10;;;;;;;;;;5068758;28;20032;-56
2023/11/02 13:48:32;;;;;;;0.50;0.33;;;;;;;;;;5068335;28;20100;-57
2023/11/02 13:50:59;;;;;;;0.00;0.00;;;;;;;;;;5070190;28;20112;-56
2023/11/02 13:53:26;;;;;;;0.50;0.20;;;;;;;;;;5073667;28;20043;-56
2023/11/02 13:55:54;;;;;;;0.10;0.10;;;;;;;;;;5089065;28;20028;-57
2023/11/02 13:58:21;;;;;;;0.20;0.20;;;;;;;;;;5093930;28;20097;-57
2023/11/02 14:00:50;;;;;;;0.13;0.13;;;;;;;;;;5093884;28;20804;-57
2023/11/02 14:03:22;;;;;;;0.40;0.27;;;;;;;;;;5092146;28;20607;-56
2023/11/02 14:05:51;;;;;;;0.00;0.00;;;;;;;;;;5084701;28;20379;-57
2023/11/02 14:08:19;;;;;;;0.00;0.00;;;;;;;;;;5086216;28;20044;-57
2023/11/02 14:10:46;;;;;;;0.50;0.30;;;;;;;;;;5088127;28;20379;-57
2023/11/02 14:13:13;;;;;;;0.10;0.10;;;;;;;;;;5089321;28;20035;-57
2023/11/02 14:15:42;;;;;;;0.20;0.17;;;;;;;;;;5093604;28;20064;-57
2023/11/02 14:18:09;;;;;;;0.83;0.50;;;;;;;;;;5093466;28;20391;-57
2023/11/02 14:20:37;;;;;;;0.30;0.10;;;;;;;;;;5091547;28;20044;-57
2023/11/02 14:23:04;;;;;;;0.00;0.00;;;;;;;;;;5072676;28;20487;-57
2023/11/02 14:25:30;;;;;;;0.10;0.10;;;;;;;;;;5071817;28;20035;-57
2023/11/02 14:27:57;;;;;;;0.33;0.20;;;;;;;;;;5067588;28;20032;-57
2023/11/02 14:30:24;;;;;;;0.17;0.17;;;;;;;;;;5068043;28;20085;-57
2023/11/02 14:32:54;;;;;;;0.00;0.00;;;;;;;;;;5082829;28;20470;-57
2023/11/02 14:35:21;;;;;;;0.10;0.10;;;;;;;;;;5088409;28;20108;-57
2023/11/02 14:37:47;;;;;;;0.00;0.00;;;;;;;;;;5093402;28;20106;-57
2023/11/02 14:40:16;;;;;;;0.10;0.10;;;;;;;;;;5093244;28;20095;-57
2023/11/02 14:42:43;;;;;;;0.00;0.00;;;;;;;;;;5092812;28;20078;-57
2023/11/02 14:45:12;;;;;;;0.17;0.10;;;;;;;;;;5092801;28;20108;-57
2023/11/02 14:47:40;;;;;;;0.00;0.00;;;;;;;;;;5092001;28;20109;-57
2023/11/02 14:50:07;;;;;;;0.27;0.10;;;;;;;;;;5087756;28;20031;-58
2023/11/02 14:52:34;;;;;;;0.00;0.00;;;;;;;;;;5087906;28;20081;-57
2023/11/02 14:55:01;;;;;;;0.10;0.10;;;;;;;;;;5087218;28;20098;-57
2023/11/02 14:57:27;;;;;;;5.93;0.13;;;;;;;;;;5070979;28;20086;-57
2023/11/02 14:59:54;;;;;;;0.20;0.10;;;;;;;;;;5073047;28;20052;-57